createdAt,value
2018-12-07T00:01:26.743Z,16.15
2018-12-07T00:03:54.452Z,16.35
2018-12-07T00:06:22.473Z,17.70
2018-12-07T00:08:50.812Z,16.80
2018-12-07T00:11:18.807Z,15.43
2018-12-07T00:13:46.555Z,15.65
2018-12-07T00:16:15.192Z,16.83
2018-12-07T00:18:42.893Z,15.98
2018-12-07T00:21:10.898Z,15.60
2018-12-07T00:23:38.616Z,15.18
2018-12-07T00:26:08.184Z,15.13
2018-12-07T00:28:37.706Z,14.13
2018-12-07T00:31:06.219Z,15.15
2018-12-07T00:33:33.964Z,14.35
2018-12-07T00:36:01.956Z,12.93
2018-12-07T00:38:29.968Z,14.57
2018-12-07T00:40:57.979Z,14.93
2018-12-07T00:43:25.684Z,13.32
2018-12-07T00:45:55.524Z,14.52
2018-12-07T00:48:25.036Z,14.23
2018-12-07T00:50:54.538Z,11.88
2018-12-07T00:53:23.011Z,14.40
2018-12-07T00:55:52.329Z,13.90
2018-12-07T00:58:20.314Z,13.62
2018-12-07T01:00:49.936Z,13.20
2018-12-07T01:03:17.928Z,14.05
2018-12-07T01:05:46.482Z,15.73
2018-12-07T01:08:14.573Z,15.55
2018-12-07T01:10:43.150Z,15.98
2018-12-07T01:13:12.718Z,13.02
2018-12-07T01:15:40.765Z,15.18
2018-12-07T01:18:10.015Z,16.80
2018-12-07T01:20:38.017Z,14.32
2018-12-07T01:23:06.385Z,15.38
2018-12-07T01:25:34.394Z,16.10
2018-12-07T01:28:03.895Z,15.85
2018-12-07T01:30:33.440Z,16.60
2018-12-07T01:33:03.021Z,17.23
2018-12-07T01:35:32.519Z,13.25
2018-12-07T01:38:00.308Z,16.08
2018-12-07T01:40:28.352Z,16.77
2018-12-07T01:42:57.855Z,17.05
2018-12-07T01:45:25.836Z,17.42
2018-12-07T01:47:55.420Z,18.00
2018-12-07T01:50:23.193Z,18.35
2018-12-07T01:52:51.594Z,18.08
2018-12-07T01:55:21.097Z,16.58
2018-12-07T01:57:50.691Z,17.90
2018-12-07T02:00:18.734Z,18.12
2018-12-07T02:02:48.253Z,17.83
2018-12-07T02:05:17.775Z,22.33
2018-12-07T02:07:45.782Z,21.15
2018-12-07T02:10:13.488Z,23.55
2018-12-07T02:12:41.497Z,23.45
2018-12-07T02:15:09.875Z,22.75
2018-12-07T02:17:37.867Z,21.77
2018-12-07T02:20:07.319Z,21.87
2018-12-07T02:22:35.327Z,24.42
2018-12-07T02:25:03.283Z,24.77
2018-12-07T02:27:50.598Z,24.48
2018-12-07T02:30:18.663Z,23.65
2018-12-07T02:32:48.277Z,22.70
2018-12-07T02:35:17.316Z,21.87
2018-12-07T02:37:47.010Z,22.58
2018-12-07T02:40:14.706Z,18.60
2018-12-07T02:42:44.421Z,19.48
2018-12-07T02:45:13.694Z,22.52
2018-12-07T02:47:43.094Z,19.05
2018-12-07T02:50:12.713Z,20.92
2018-12-07T02:52:40.708Z,22.13
2018-12-07T02:55:09.521Z,22.52
2018-12-07T02:57:39.458Z,18.90
2018-12-07T03:00:09.782Z,19.80
2018-12-07T03:02:37.946Z,22.77
2018-12-07T03:05:07.942Z,20.95
2018-12-07T03:07:36.491Z,23.45
2018-12-07T03:10:06.359Z,20.98
2018-12-07T03:12:35.336Z,19.08
2018-12-07T03:15:05.056Z,22.00
2018-12-07T03:17:35.815Z,18.42
2018-12-07T03:20:05.815Z,20.48
2018-12-07T03:22:33.864Z,16.87
2018-12-07T03:25:01.626Z,18.35
2018-12-07T03:27:29.740Z,19.48
2018-12-07T03:29:58.986Z,18.30
2018-12-07T03:32:28.537Z,17.85
2018-12-07T03:34:56.563Z,17.98
2018-12-07T03:37:26.183Z,15.93
2018-12-07T03:39:53.969Z,14.73
2018-12-07T03:42:21.995Z,12.07
2018-12-07T03:44:50.031Z,12.98
2018-12-07T03:47:19.340Z,12.65
2018-12-07T03:49:47.111Z,10.80
2018-12-07T03:52:16.682Z,12.27
2018-12-07T03:54:44.686Z,13.30
2018-12-07T03:57:14.391Z,10.52
2018-12-07T03:59:44.400Z,10.55
2018-12-07T04:02:12.500Z,10.13
2018-12-07T04:04:40.782Z,8.43
2018-12-07T04:07:08.825Z,8.98
2018-12-07T04:09:36.827Z,7.72
2018-12-07T04:12:06.369Z,7.03
2018-12-07T04:14:34.366Z,6.93
2018-12-07T04:17:02.396Z,7.95
2018-12-07T04:19:32.000Z,8.40
2018-12-07T04:21:59.985Z,7.37
2018-12-07T04:24:29.031Z,6.70
2018-12-07T04:26:57.471Z,6.90
2018-12-07T04:29:25.491Z,7.45
2018-12-07T04:31:54.178Z,7.03
2018-12-07T04:34:23.710Z,8.65
2018-12-07T04:36:52.983Z,7.15
2018-12-07T04:39:20.974Z,7.05
2018-12-07T04:41:49.032Z,5.85
2018-12-07T04:44:18.538Z,6.68
2018-12-07T04:46:46.528Z,5.90
2018-12-07T04:49:16.468Z,5.10
2018-12-07T04:51:46.024Z,6.47
2018-12-07T04:54:14.056Z,5.47
2018-12-07T04:56:44.015Z,5.57
2018-12-07T04:59:13.639Z,4.87
2018-12-07T05:01:42.142Z,3.70
2018-12-07T05:04:11.427Z,5.10
2018-12-07T05:06:41.033Z,4.80
2018-12-07T05:09:10.521Z,4.37
2018-12-07T05:11:40.151Z,4.97
2018-12-07T05:14:09.623Z,4.22
2018-12-07T05:16:39.138Z,4.00
2018-12-07T05:19:06.951Z,4.32
2018-12-07T05:21:36.519Z,3.83
2018-12-07T05:24:04.517Z,3.70
2018-12-07T05:26:32.591Z,3.70
2018-12-07T05:29:02.622Z,4.37
2018-12-07T05:31:32.317Z,4.15
2018-12-07T05:34:00.634Z,4.10
2018-12-07T05:36:31.289Z,4.05
2018-12-07T05:39:00.797Z,3.80
2018-12-07T05:41:30.414Z,3.78
2018-12-07T05:43:58.180Z,3.25
2018-12-07T05:46:26.230Z,4.20
2018-12-07T05:48:57.794Z,3.40
2018-12-07T05:51:27.389Z,3.72
2018-12-07T05:53:57.016Z,4.20
2018-12-07T05:56:25.478Z,3.53
2018-12-07T05:58:53.459Z,3.70
2018-12-07T06:01:22.753Z,3.90
2018-12-07T06:03:50.806Z,4.28
2018-12-07T06:06:20.326Z,3.08
2018-12-07T06:08:48.058Z,4.30
2018-12-07T06:11:17.752Z,3.25
2018-12-07T06:13:47.195Z,3.75
2018-12-07T06:16:15.168Z,2.60
2018-12-07T06:18:43.256Z,3.40
2018-12-07T06:21:12.780Z,3.40
2018-12-07T06:23:42.095Z,2.40
2018-12-07T06:26:09.841Z,3.83
2018-12-07T06:28:37.892Z,2.97
2018-12-07T06:31:07.397Z,2.90
2018-12-07T06:33:35.498Z,3.50
2018-12-07T06:36:03.494Z,3.58
2018-12-07T06:38:31.173Z,3.60
2018-12-07T06:40:59.211Z,3.45
2018-12-07T06:43:28.770Z,3.47
2018-12-07T06:45:56.759Z,4.60
2018-12-07T06:48:25.154Z,3.78
2018-12-07T06:50:54.741Z,4.43
2018-12-07T06:53:22.759Z,5.00
2018-12-07T06:55:52.334Z,4.90
2018-12-07T06:58:20.364Z,4.65
2018-12-07T07:00:48.580Z,4.82
2018-12-07T07:03:18.028Z,4.65
2018-12-07T07:05:46.675Z,5.60
2018-12-07T07:08:16.286Z,5.57
2018-12-07T07:10:45.857Z,5.25
2018-12-07T07:13:15.472Z,5.45
2018-12-07T07:15:44.970Z,4.62
2018-12-07T07:18:14.690Z,5.40
2018-12-07T07:20:43.943Z,6.32
2018-12-07T07:23:12.521Z,8.40
2018-12-07T07:25:40.936Z,5.32
2018-12-07T07:28:10.673Z,6.25
2018-12-07T07:30:38.727Z,5.15
2018-12-07T07:33:06.752Z,5.55
2018-12-07T07:35:35.026Z,5.18
2018-12-07T07:38:02.944Z,6.12
2018-12-07T07:40:30.974Z,6.20
2018-12-07T07:43:00.645Z,5.47
2018-12-07T07:45:28.371Z,6.50
2018-12-07T07:47:56.389Z,6.37
2018-12-07T07:50:24.395Z,5.40
2018-12-07T07:52:52.399Z,5.93
2018-12-07T07:55:20.942Z,6.40
2018-12-07T07:57:48.922Z,7.40
2018-12-07T08:00:18.550Z,7.70
2018-12-07T08:02:46.600Z,6.70
2018-12-07T08:05:14.618Z,8.15
2018-12-07T08:07:44.087Z,5.78
2018-12-07T08:10:12.519Z,7.22
2018-12-07T08:12:41.972Z,7.05
2018-12-07T08:15:09.982Z,7.80
2018-12-07T08:17:38.024Z,7.35
2018-12-07T08:20:07.511Z,6.57
2018-12-07T08:22:35.518Z,5.37
2018-12-07T08:25:04.804Z,6.45
2018-12-07T08:27:34.309Z,6.25
2018-12-07T08:30:02.554Z,5.97
2018-12-07T08:32:32.107Z,7.05
2018-12-07T08:35:00.158Z,6.95
2018-12-07T08:37:29.656Z,6.72
2018-12-07T08:39:59.481Z,5.95
2018-12-07T08:42:27.437Z,7.28
2018-12-07T08:44:56.914Z,7.32
2018-12-07T08:47:25.445Z,6.10
2018-12-07T08:49:58.690Z,5.10
2018-12-07T08:52:26.688Z,6.95
2018-12-07T08:54:56.313Z,6.97
2018-12-07T08:57:24.071Z,7.12
2018-12-07T08:59:52.086Z,6.12
2018-12-07T09:02:22.033Z,6.03
2018-12-07T09:04:50.027Z,6.32
2018-12-07T09:07:17.971Z,6.90
2018-12-07T09:09:47.290Z,5.97
2018-12-07T09:12:16.790Z,6.03
2018-12-07T09:14:46.300Z,6.05
2018-12-07T09:17:15.946Z,6.82
2018-12-07T09:19:44.010Z,6.47
2018-12-07T09:22:13.672Z,6.43
2018-12-07T09:24:41.401Z,6.25
2018-12-07T09:27:09.433Z,5.43
2018-12-07T09:29:37.459Z,6.20
2018-12-07T09:32:06.913Z,4.68
2018-12-07T09:34:36.406Z,6.28
2018-12-07T09:37:06.013Z,4.95
2018-12-07T09:39:34.265Z,4.97
2018-12-07T09:42:03.982Z,5.15
2018-12-07T09:44:31.960Z,4.55
2018-12-07T09:47:01.284Z,4.60
2018-12-07T09:49:29.267Z,4.40
2018-12-07T09:51:58.823Z,4.05
2018-12-07T09:54:27.108Z,4.68
2018-12-07T09:56:55.046Z,3.95
2018-12-07T09:59:23.070Z,3.25
2018-12-07T10:01:51.061Z,3.58
2018-12-07T10:04:19.287Z,4.43
2018-12-07T10:06:47.853Z,4.18
2018-12-07T10:09:18.277Z,4.75
2018-12-07T10:11:46.250Z,4.28
2018-12-07T10:14:14.029Z,4.53
2018-12-07T10:16:43.577Z,3.97
2018-12-07T10:19:12.894Z,4.05
2018-12-07T10:21:40.855Z,4.82
2018-12-07T10:24:09.482Z,4.25
2018-12-07T10:26:39.015Z,3.75
2018-12-07T10:29:07.018Z,3.78
2018-12-07T10:31:35.454Z,3.80
2018-12-07T10:34:03.242Z,4.40
2018-12-07T10:36:31.187Z,4.35
2018-12-07T10:38:59.213Z,3.87
2018-12-07T10:41:26.906Z,4.10
2018-12-07T10:43:56.421Z,4.03
2018-12-07T10:46:25.750Z,3.62
2018-12-07T10:48:55.255Z,3.80
2018-12-07T10:51:24.519Z,3.72
2018-12-07T10:53:54.052Z,3.65
2018-12-07T10:56:23.647Z,3.10
2018-12-07T10:58:51.651Z,2.67
2018-12-07T11:01:37.558Z,2.95
2018-12-07T11:04:23.777Z,2.70
2018-12-07T11:07:09.470Z,2.80
2018-12-07T11:09:55.217Z,2.15
2018-12-07T11:12:41.030Z,3.17
2018-12-07T11:15:33.852Z,3.25
2018-12-07T11:18:19.226Z,3.40
2018-12-07T11:21:04.800Z,2.58
2018-12-07T11:23:50.151Z,2.85
2018-12-07T11:26:35.774Z,4.10
2018-12-07T11:29:21.675Z,2.15
2018-12-07T11:32:07.256Z,2.28
2018-12-07T11:34:41.326Z,1.92
2018-12-07T11:37:10.902Z,3.00
2018-12-07T11:39:39.438Z,2.65
2018-12-07T11:42:07.454Z,3.62
2018-12-07T11:44:49.786Z,3.30
2018-12-07T11:47:18.251Z,6.22
2018-12-07T11:49:48.210Z,1.73
2018-12-07T11:52:16.440Z,2.20
2018-12-07T11:54:44.752Z,1.83
2018-12-07T11:57:14.674Z,1.87
2018-12-07T11:59:44.241Z,1.60
2018-12-07T12:02:12.224Z,2.37
2018-12-07T12:04:41.727Z,2.50
2018-12-07T12:07:11.066Z,2.15
2018-12-07T12:09:38.992Z,1.85
2018-12-07T12:12:06.961Z,2.05
2018-12-07T12:14:34.924Z,1.98
2018-12-07T12:17:05.844Z,1.90
2018-12-07T12:19:35.351Z,1.70
2018-12-07T12:22:03.054Z,1.80
2018-12-07T12:24:32.665Z,1.80
2018-12-07T12:27:01.232Z,2.58
2018-12-07T12:29:29.241Z,2.08
2018-12-07T12:31:57.320Z,2.28
2018-12-07T12:34:26.982Z,2.20
2018-12-07T12:36:54.969Z,1.83
2018-12-07T12:39:22.978Z,1.92
2018-12-07T12:41:50.934Z,1.92
2018-12-07T12:44:20.529Z,1.92
2018-12-07T12:46:50.089Z,1.70
2018-12-07T12:49:19.803Z,1.17
2018-12-07T12:51:49.101Z,1.42
2018-12-07T12:54:18.788Z,1.20
2018-12-07T12:56:47.135Z,1.20
2018-12-07T12:59:14.875Z,1.30
2018-12-07T13:01:42.901Z,1.00
2018-12-07T13:04:10.863Z,1.10
2018-12-07T13:06:38.581Z,1.15
2018-12-07T13:09:09.373Z,1.20
2018-12-07T13:11:37.327Z,0.93
2018-12-07T13:14:06.860Z,1.27
2018-12-07T13:16:35.763Z,0.80
2018-12-07T13:19:03.836Z,1.00
2018-12-07T13:21:31.794Z,1.27
2018-12-07T13:24:01.304Z,1.12
2018-12-07T13:26:30.796Z,1.40
2018-12-07T13:29:00.279Z,1.42
2018-12-07T13:31:31.164Z,1.80
2018-12-07T13:34:01.428Z,1.30
2018-12-07T13:36:31.517Z,1.10
2018-12-07T13:38:59.493Z,1.05
2018-12-07T13:41:29.094Z,1.45
2018-12-07T13:43:56.942Z,1.60
2018-12-07T13:46:25.628Z,1.30
2018-12-07T13:48:53.575Z,1.60
2018-12-07T13:51:23.355Z,1.60
2018-12-07T13:53:52.846Z,1.17
2018-12-07T13:56:22.454Z,1.30
2018-12-07T13:58:50.392Z,1.95
2018-12-07T14:01:19.114Z,1.60
2018-12-07T14:03:46.981Z,1.52
2018-12-07T14:06:16.144Z,1.40
2018-12-07T14:08:44.174Z,1.67
2018-12-07T14:11:12.302Z,1.92
2018-12-07T14:13:41.922Z,1.65
2018-12-07T14:16:09.826Z,2.75
2018-12-07T14:18:37.746Z,65.87
2018-12-07T14:21:05.772Z,32.10
2018-12-07T14:23:35.873Z,133.90
2018-12-07T14:26:03.058Z,62.22
2018-12-07T14:28:32.634Z,39.75
2018-12-07T14:31:00.883Z,49.67
2018-12-07T14:33:30.051Z,28.90
2018-12-07T14:35:58.652Z,12.02
2018-12-07T14:38:26.641Z,19.00
2018-12-07T14:40:55.146Z,29.87
2018-12-07T14:43:23.164Z,50.42
2018-12-07T14:45:52.966Z,22.00
2018-12-07T14:48:22.452Z,29.83
2018-12-07T14:50:50.667Z,25.08
2018-12-07T14:53:18.877Z,27.90
2018-12-07T14:55:46.816Z,8.52
2018-12-07T14:58:14.949Z,19.52
2018-12-07T15:00:42.988Z,15.40
2018-12-07T15:03:11.026Z,5.10
2018-12-07T15:05:38.977Z,28.60
2018-12-07T15:08:07.095Z,6.80
2018-12-07T15:10:36.802Z,12.75
2018-12-07T15:13:05.429Z,22.55
2018-12-07T15:15:35.196Z,17.62
2018-12-07T15:18:03.316Z,8.25
2018-12-07T15:20:31.443Z,14.10
2018-12-07T15:23:00.178Z,12.68
2018-12-07T15:25:27.974Z,13.82
2018-12-07T15:27:56.099Z,9.77
2018-12-07T15:30:25.692Z,5.18
2018-12-07T15:32:53.684Z,8.52
2018-12-07T15:35:21.909Z,2.92
2018-12-07T15:37:49.805Z,4.15
2018-12-07T15:40:17.847Z,5.82
2018-12-07T15:42:45.776Z,4.57
2018-12-07T15:45:15.544Z,2.70
2018-12-07T15:47:43.449Z,2.83
2018-12-07T15:50:12.800Z,3.10
2018-12-07T15:52:42.517Z,2.95
2018-12-07T15:55:10.570Z,3.42
2018-12-07T15:57:40.176Z,2.30
2018-12-07T16:00:10.104Z,2.17
2018-12-07T16:02:38.091Z,2.17
2018-12-07T16:05:07.559Z,2.08
2018-12-07T16:07:35.714Z,2.60
2018-12-07T16:10:03.535Z,1.30
2018-12-07T16:12:31.642Z,1.42
2018-12-07T16:14:59.817Z,1.40
2018-12-07T16:17:28.015Z,1.20
2018-12-07T16:19:55.959Z,1.70
2018-12-07T16:22:25.850Z,1.17
2018-12-07T16:24:55.538Z,1.35
2018-12-07T16:27:24.954Z,1.42
2018-12-07T16:29:53.100Z,2.10
2018-12-07T16:32:22.576Z,2.10
2018-12-07T16:34:52.287Z,1.92
2018-12-07T16:37:20.393Z,1.92
2018-12-07T16:39:50.014Z,1.90
2018-12-07T16:42:18.006Z,2.00
2018-12-07T16:44:46.313Z,1.60
2018-12-07T16:47:14.440Z,2.12
2018-12-07T16:49:44.557Z,2.28
2018-12-07T16:52:13.271Z,1.87
2018-12-07T16:54:41.331Z,1.50
2018-12-07T16:57:09.325Z,2.00
2018-12-07T16:59:39.225Z,1.77
2018-12-07T17:02:07.210Z,1.37
2018-12-07T17:04:37.014Z,2.10
2018-12-07T17:07:07.147Z,1.92
2018-12-07T17:09:35.154Z,1.60
2018-12-07T17:12:04.637Z,1.58
2018-12-07T17:14:34.342Z,1.42
2018-12-07T17:17:02.340Z,1.40
2018-12-07T17:19:32.137Z,1.33
2018-12-07T17:21:59.927Z,1.67
2018-12-07T17:24:27.851Z,1.40
2018-12-07T17:26:57.354Z,1.77
2018-12-07T17:29:25.908Z,1.60
2018-12-07T17:31:53.665Z,1.45
2018-12-07T17:34:21.529Z,1.92
2018-12-07T17:36:50.099Z,1.80
2018-12-07T17:39:20.265Z,1.45
2018-12-07T17:41:48.141Z,1.35
2018-12-07T17:44:16.447Z,1.70
2018-12-07T17:46:45.618Z,1.73
2018-12-07T17:49:15.084Z,1.92
2018-12-07T17:51:44.867Z,2.03
2018-12-07T17:54:12.636Z,1.90
2018-12-07T17:56:42.405Z,2.12
2018-12-07T17:59:10.957Z,2.20
2018-12-07T18:01:38.841Z,2.78
2018-12-07T18:04:08.330Z,2.30
2018-12-07T18:06:36.548Z,2.33
2018-12-07T18:09:06.733Z,2.33
2018-12-07T18:11:34.787Z,2.50
2018-12-07T18:14:04.359Z,2.90
2018-12-07T18:16:32.602Z,2.47
2018-12-07T18:19:02.106Z,2.92
2018-12-07T18:21:31.881Z,3.33
2018-12-07T18:24:01.298Z,4.20
2018-12-07T18:26:29.348Z,4.93
2018-12-07T18:28:57.052Z,5.57
2018-12-07T18:31:26.507Z,4.07
2018-12-07T18:33:56.088Z,3.72
2018-12-07T18:36:24.141Z,4.20
2018-12-07T18:38:52.143Z,3.60
2018-12-07T18:41:21.648Z,2.97
2018-12-07T18:43:51.224Z,3.00
2018-12-07T18:46:19.331Z,2.35
2018-12-07T18:48:47.462Z,2.30
2018-12-07T18:51:17.281Z,2.42
2018-12-07T18:53:45.386Z,2.65
2018-12-07T18:56:16.129Z,2.75
2018-12-07T18:58:45.507Z,3.30
2018-12-07T19:01:14.968Z,2.42
2018-12-07T19:03:42.659Z,3.10
2018-12-07T19:06:12.168Z,3.75
2018-12-07T19:08:40.272Z,2.85
2018-12-07T19:11:08.217Z,3.50
2018-12-07T19:13:38.333Z,3.25
2018-12-07T19:16:06.885Z,2.45
2018-12-07T19:18:34.921Z,3.97
2018-12-07T19:21:02.970Z,3.40
2018-12-07T19:23:31.067Z,4.37
2018-12-07T19:25:59.176Z,3.62
2018-12-07T19:28:27.670Z,2.87
2018-12-07T19:30:56.900Z,3.12
2018-12-07T19:33:24.908Z,3.78
2018-12-07T19:35:53.550Z,2.80
2018-12-07T19:38:21.500Z,2.62
2018-12-07T19:40:50.055Z,3.15
2018-12-07T19:43:17.987Z,3.50
2018-12-07T19:45:47.580Z,4.07
2018-12-07T19:48:15.519Z,3.62
2018-12-07T19:50:45.291Z,3.45
2018-12-07T19:53:13.342Z,3.03
2018-12-07T19:55:41.211Z,3.00
2018-12-07T19:58:10.858Z,3.22
2018-12-07T20:00:38.885Z,4.35
2018-12-07T20:03:09.078Z,3.95
2018-12-07T20:05:38.927Z,2.87
2018-12-07T20:08:06.758Z,3.42
2018-12-07T20:10:34.800Z,3.45
2018-12-07T20:13:02.802Z,3.40
2018-12-07T20:15:30.553Z,3.55
2018-12-07T20:18:00.192Z,2.97
2018-12-07T20:20:30.279Z,2.62
2018-12-07T20:22:59.644Z,3.75
2018-12-07T20:25:27.660Z,3.35
2018-12-07T20:27:58.094Z,3.85
2018-12-07T20:30:26.097Z,4.25
2018-12-07T20:32:54.599Z,3.03
2018-12-07T20:35:23.386Z,2.22
2018-12-07T20:37:51.059Z,2.92
2018-12-07T20:40:21.040Z,2.42
2018-12-07T20:42:49.455Z,2.78
2018-12-07T20:45:17.125Z,1.75
2018-12-07T20:47:46.511Z,1.90
2018-12-07T20:50:16.230Z,1.33
2018-12-07T20:52:44.048Z,1.75
2018-12-07T20:55:12.407Z,2.03
2018-12-07T20:57:40.541Z,1.80
2018-12-07T21:00:09.104Z,2.35
2018-12-07T21:02:37.192Z,2.50
2018-12-07T21:05:49.669Z,3.20
2018-12-07T21:08:53.290Z,4.32
2018-12-07T21:11:27.036Z,3.35
2018-12-07T21:14:20.238Z,4.03
2018-12-07T21:17:10.923Z,2.47
2018-12-07T21:19:40.187Z,3.08
2018-12-07T21:22:08.265Z,2.80
2018-12-07T21:24:37.832Z,3.45
2018-12-07T21:27:05.857Z,3.45
2018-12-07T21:29:35.291Z,3.30
2018-12-07T21:32:06.349Z,2.90
2018-12-07T21:34:56.853Z,3.50
2018-12-07T21:37:26.606Z,2.70
2018-12-07T21:40:12.348Z,2.40
2018-12-07T21:42:40.753Z,2.42
2018-12-07T21:45:09.016Z,2.90
2018-12-07T21:48:12.395Z,2.92
2018-12-07T21:50:40.998Z,2.58
2018-12-07T21:53:10.469Z,2.67
2018-12-07T21:55:38.306Z,2.45
2018-12-07T21:58:06.215Z,3.25
2018-12-07T22:00:34.266Z,2.67
2018-12-07T22:03:03.534Z,2.90
2018-12-07T22:05:31.643Z,2.92
2018-12-07T22:08:00.205Z,3.10
2018-12-07T22:10:29.497Z,3.65
2018-12-07T22:12:57.725Z,3.08
2018-12-07T22:15:25.549Z,2.95
2018-12-07T22:17:55.257Z,3.25
2018-12-07T22:20:25.246Z,3.20
2018-12-07T22:22:54.934Z,4.45
2018-12-07T22:25:24.431Z,3.90
2018-12-07T22:27:52.487Z,3.47
2018-12-07T22:30:20.836Z,3.62
2018-12-07T22:32:48.570Z,3.05
2018-12-07T22:35:16.747Z,2.83
2018-12-07T22:37:46.052Z,3.15
2018-12-07T22:40:13.451Z,2.83
2018-12-07T22:42:41.720Z,2.70
2018-12-07T22:45:11.230Z,2.17
2018-12-07T22:47:40.882Z,3.00
2018-12-07T22:50:08.909Z,2.60
2018-12-07T22:52:36.925Z,3.05
2018-12-07T22:55:05.162Z,2.75
2018-12-07T22:57:33.261Z,4.00
2018-12-07T23:00:01.227Z,2.42
2018-12-07T23:02:30.958Z,2.87
2018-12-07T23:04:59.127Z,2.45
2018-12-07T23:07:27.714Z,2.90
2018-12-07T23:09:56.821Z,1.95
2018-12-07T23:12:26.396Z,3.30
2018-12-07T23:14:54.343Z,2.87
2018-12-07T23:17:22.701Z,1.87
2018-12-07T23:19:50.737Z,2.10
2018-12-07T23:22:18.784Z,2.33
2018-12-07T23:24:46.806Z,2.12
2018-12-07T23:27:14.789Z,2.58
2018-12-07T23:29:44.820Z,2.40
2018-12-07T23:32:14.538Z,2.95
2018-12-07T23:34:44.042Z,2.55
2018-12-07T23:37:13.765Z,2.75
2018-12-07T23:39:43.418Z,2.90
2018-12-07T23:42:13.073Z,2.37
2018-12-07T23:44:42.681Z,2.20
2018-12-07T23:47:12.001Z,2.67
2018-12-07T23:49:41.506Z,2.55
2018-12-07T23:52:09.650Z,2.90
2018-12-07T23:54:38.042Z,2.53
2018-12-07T23:57:05.995Z,3.30
2018-12-07T23:59:34.007Z,3.55
